Time;durP1;ratioP1;P1;durP2;ratioP2;P2;SDS_P1;SDS_P2;PMS_P1;PMS_P2;Temp;Humidity;BMP_temperature;BMP_pressure;BME280_temperature;BME280_humidity;BME280_pressure;Samples;Min_cycle;Max_cycle;Signal;HPM_P1;HPM_P2
2024/02/20 00:00:14;;;;;;;19.25;5.13;;;;;;;8.59;97.26;101815.72;4989924;28;20042;-59
2024/02/20 00:02:43;;;;;;;24.48;6.70;;;;;;;8.57;97.31;101817.97;4989539;28;20054;-59
2024/02/20 00:05:10;;;;;;;23.83;4.18;;;;;;;8.56;97.23;101824.59;4977155;28;20054;-59
2024/02/20 00:07:39;;;;;;;17.60;3.80;;;;;;;8.53;97.01;101819.69;4989259;28;20069;-60
2024/02/20 00:10:11;;;;;;;17.73;4.13;;;;;;;8.54;96.92;101835.13;4989137;28;20054;-62
2024/02/20 00:12:38;;;;;;;11.32;3.17;;;;;;;8.51;96.80;101835.75;4989312;28;20050;-60
2024/02/20 00:15:08;;;;;;;24.90;4.80;;;;;;;8.52;96.93;101831.88;4989586;28;20053;-60
2024/02/20 00:17:37;;;;;;;27.95;5.07;;;;;;;8.53;96.89;101825.22;4985935;28;20129;-60
2024/02/20 00:20:06;;;;;;;23.33;5.10;;;;;;;8.54;96.78;101826.84;4971391;28;20043;-60
2024/02/20 00:22:34;;;;;;;21.88;4.15;;;;;;;8.51;96.73;101816.41;4987453;28;20416;-61
2024/02/20 00:25:03;;;;;;;19.25;4.95;;;;;;;8.51;96.69;101814.47;4983092;28;20054;-60
2024/02/20 00:27:31;;;;;;;24.40;4.63;;;;;;;8.50;96.60;101810.06;4988492;28;20050;-61
2024/02/20 00:29:59;;;;;;;23.45;3.97;;;;;;;8.49;96.60;101799.34;4986372;28;20413;-60
2024/02/20 00:32:27;;;;;;;11.18;2.85;;;;;;;8.47;96.48;101794.13;4988477;28;20046;-60
2024/02/20 00:34:55;;;;;;;23.77;4.82;;;;;;;8.48;96.58;101794.94;4989530;28;20054;-60
2024/02/20 00:37:23;;;;;;;18.85;5.25;;;;;;;8.47;96.64;101782.28;4988544;28;20034;-60
2024/02/20 00:39:51;;;;;;;27.88;4.25;;;;;;;8.47;96.51;101777.56;4988023;28;20416;-60
2024/02/20 00:42:18;;;;;;;19.60;4.60;;;;;;;8.48;96.42;101786.66;4987595;28;20062;-60
2024/02/20 00:44:50;;;;;;;17.63;4.18;;;;;;;8.48;96.34;101786.66;4971388;28;20624;-60
2024/02/20 00:47:17;;;;;;;17.98;4.60;;;;;;;8.47;96.53;101779.53;4988362;28;20050;-61
2024/02/20 00:49:45;;;;;;;22.50;6.22;;;;;;;8.48;96.35;101775.63;4978861;28;20058;-61
2024/02/20 00:52:13;;;;;;;16.60;3.67;;;;;;;8.46;96.41;101766.84;4986406;28;20054;-61
2024/02/20 00:54:40;;;;;;;21.77;4.95;;;;;;;8.43;96.55;101776.56;4987863;28;20053;-61
2024/02/20 00:57:09;;;;;;;17.67;4.07;;;;;;;8.42;96.49;101766.63;4982230;28;20137;-61
2024/02/20 00:59:38;;;;;;;12.75;3.83;;;;;;;8.42;96.66;101765.81;4992702;28;20416;-60
2024/02/20 01:02:10;;;;;;;14.20;3.72;;;;;;;8.40;96.53;101760.59;4988664;28;20058;-60
2024/02/20 01:04:40;;;;;;;18.40;4.60;;;;;;;8.39;96.68;101755.41;4988479;28;20046;-60
2024/02/20 01:07:08;;;;;;;10.13;3.22;;;;;;;8.38;96.82;101743.53;4987769;28;20054;-60
2024/02/20 01:09:39;;;;;;;19.02;4.90;;;;;;;8.36;96.78;101726.50;4987850;28;20046;-60
2024/02/20 01:12:06;;;;;;;18.63;3.55;;;;;;;8.36;97.16;101720.16;4988217;28;20054;-61
2024/02/20 01:14:34;;;;;;;19.75;3.85;;;;;;;8.35;97.03;101732.28;4988336;28;20050;-60
2024/02/20 01:17:01;;;;;;;19.42;3.25;;;;;;;8.34;97.22;101725.94;4987100;28;20054;-60
2024/02/20 01:19:28;;;;;;;17.08;3.50;;;;;;;8.35;97.45;101732.28;4984062;28;20042;-60
2024/02/20 01:21:56;;;;;;;13.30;3.58;;;;;;;8.39;97.50;101722.28;4976953;28;20054;-60
2024/02/20 01:24:23;;;;;;;20.83;3.97;;;;;;;8.41;97.60;101733.84;4987616;28;20057;-60
2024/02/20 01:26:51;;;;;;;26.00;4.07;;;;;;;8.42;97.64;101739.03;4980728;28;20055;-60
2024/02/20 01:29:21;;;;;;;23.60;4.65;;;;;;;8.44;97.58;101727.72;4990191;28;20047;-60
2024/02/20 01:31:50;;;;;;;16.70;5.18;;;;;;;8.44;97.79;101719.44;4988098;28;20055;-60
2024/02/20 01:34:17;;;;;;;17.40;4.65;;;;;;;8.44;97.98;101716.66;4987250;28;20046;-60
2024/02/20 01:36:45;;;;;;;16.90;3.47;;;;;;;8.45;98.21;101726.56;4982671;28;20404;-61
2024/02/20 01:39:12;;;;;;;15.38;5.50;;;;;;;8.46;98.34;101711.66;4987086;28;20047;-60
2024/02/20 01:41:39;;;;;;;14.82;3.58;;;;;;;8.48;98.54;101709.41;4986462;28;20046;-61
2024/02/20 01:44:07;;;;;;;18.27;3.50;;;;;;;8.50;98.75;101707.97;4981554;28;20047;-60
2024/02/20 01:46:34;;;;;;;21.92;5.43;;;;;;;8.52;98.76;101705.72;4982594;28;20060;-61
2024/02/20 01:49:02;;;;;;;16.30;3.47;;;;;;;8.55;99.13;101707.06;4987922;28;20049;-60
2024/02/20 01:51:32;;;;;;;17.67;3.45;;;;;;;8.57;99.11;101691.00;4982115;28;20046;-60
2024/02/20 01:54:00;;;;;;;15.68;3.67;;;;;;;8.58;99.21;101692.63;4974963;28;20381;-60
2024/02/20 01:56:29;;;;;;;18.08;3.97;;;;;;;8.62;99.38;101688.13;4983263;28;20507;-60
2024/02/20 01:58:56;;;;;;;21.58;5.20;;;;;;;8.64;99.48;101677.59;4987508;28;20420;-60
2024/02/20 02:01:25;;;;;;;19.85;3.50;;;;;;;8.67;99.58;101679.72;4986471;28;20050;-60
2024/02/20 02:03:52;;;;;;;19.98;4.93;;;;;;;8.71;99.69;101688.22;4978563;28;20054;-61
2024/02/20 02:06:30;;;;;;;13.55;4.13;;;;;;;8.73;99.73;101675.75;4986676;28;20046;-61
2024/02/20 02:08:58;;;;;;;15.30;3.70;;;;;;;8.75;99.91;101665.19;4986192;28;20058;-60
2024/02/20 02:11:26;;;;;;;18.38;3.75;;;;;;;8.77;100.00;101656.59;4986699;28;20042;-60
2024/02/20 02:13:54;;;;;;;15.15;4.07;;;;;;;8.77;100.00;101656.59;4986974;28;20043;-60
2024/02/20 02:16:21;;;;;;;22.45;4.00;;;;;;;8.76;100.00;101653.03;4986524;28;20053;-60
2024/02/20 02:18:50;;;;;;;19.63;3.60;;;;;;;8.75;100.00;101643.13;4980639;28;20038;-60
2024/02/20 02:21:18;;;;;;;16.20;4.93;;;;;;;8.74;100.00;101637.88;4985283;28;20046;-60
2024/02/20 02:23:46;;;;;;;13.35;3.15;;;;;;;8.73;100.00;101630.75;4986297;28;20500;-60
2024/02/20 02:26:13;;;;;;;16.10;3.78;;;;;;;8.72;100.00;101632.69;4986194;28;20061;-61
2024/02/20 02:28:42;;;;;;;15.20;4.47;;;;;;;8.71;100.00;101620.00;4985916;28;20038;-60
2024/02/20 02:31:09;;;;;;;21.25;3.30;;;;;;;8.69;100.00;101625.03;4985672;28;20034;-60
2024/02/20 02:33:37;;;;;;;26.73;4.35;;;;;;;8.69;100.00;101613.97;4974717;28;20045;-60
2024/02/20 02:36:04;;;;;;;17.95;4.18;;;;;;;8.66;100.00;101617.34;4986696;28;20057;-60
2024/02/20 02:38:32;;;;;;;11.52;3.05;;;;;;;8.67;100.00;101610.72;4985759;28;20050;-60
2024/02/20 02:40:59;;;;;;;11.75;2.80;;;;;;;8.69;100.00;101613.97;4983743;28;20066;-60
2024/02/20 02:43:27;;;;;;;16.70;3.30;;;;;;;8.73;100.00;101605.91;4986162;28;20258;-62
2024/02/20 02:45:54;;;;;;;16.05;3.00;;;;;;;8.78;100.00;101614.06;4986116;28;20058;-61
2024/02/20 02:48:23;;;;;;;13.07;2.92;;;;;;;8.80;100.00;101596.06;4986235;28;20547;-60
2024/02/20 02:50:51;;;;;;;10.57;2.17;;;;;;;8.84;100.00;101596.25;4986220;28;20082;-60
2024/02/20 02:53:21;;;;;;;11.15;4.25;;;;;;;8.86;100.00;101589.28;4986497;28;20056;-60
2024/02/20 02:55:49;;;;;;;9.27;2.05;;;;;;;8.86;100.00;101578.25;4985524;28;20049;-61
2024/02/20 02:58:17;;;;;;;11.60;2.15;;;;;;;8.87;100.00;101577.09;4980223;28;20062;-60
2024/02/20 03:00:45;;;;;;;12.30;2.60;;;;;;;8.91;100.00;101571.78;5065507;22;20025;-60
2024/02/20 03:03:12;;;;;;;8.38;2.17;;;;;;;8.93;100.00;101561.22;4985821;28;20065;-60
2024/02/20 03:05:39;;;;;;;12.18;2.70;;;;;;;8.94;100.00;101558.16;4990006;28;20042;-61
2024/02/20 03:08:10;;;;;;;12.07;2.50;;;;;;;8.99;100.00;101540.63;4991004;28;20081;-60
2024/02/20 03:10:38;;;;;;;12.48;2.35;;;;;;;9.00;100.00;101528.47;4989699;28;20046;-60
2024/02/20 03:13:05;;;;;;;13.57;2.30;;;;;;;9.03;100.00;101534.16;4990705;28;20045;-60
2024/02/20 03:15:32;;;;;;;13.50;2.67;;;;;;;9.03;100.00;101522.28;4989620;28;20538;-60
2024/02/20 03:18:00;;;;;;;9.07;2.35;;;;;;;9.02;100.00;101515.97;4990018;28;20061;-60
2024/02/20 03:20:29;;;;;;;17.55;3.75;;;;;;;9.02;100.00;101515.97;4989556;28;21128;-60
2024/02/20 03:22:56;;;;;;;13.73;2.40;;;;;;;9.01;100.00;101514.34;4990039;28;20065;-60
2024/02/20 03:25:24;;;;;;;15.57;2.47;;;;;;;9.01;100.00;101505.22;4990384;28;20052;-60
2024/02/20 03:27:51;;;;;;;6.45;2.20;;;;;;;9.01;100.00;101495.00;4990924;28;20061;-60
2024/02/20 03:30:19;;;;;;;11.23;2.17;;;;;;;9.01;100.00;101492.25;4989693;28;20046;-60
2024/02/20 03:32:47;;;;;;;7.43;1.92;;;;;;;9.02;100.00;101482.00;4989409;28;20050;-60
2024/02/20 03:35:20;;;;;;;11.68;2.17;;;;;;;9.05;100.00;101486.91;4990256;28;20057;-60
2024/02/20 03:37:49;;;;;;;17.27;4.97;;;;;;;9.04;100.00;101475.03;4989844;28;20406;-60
2024/02/20 03:40:17;;;;;;;6.82;1.50;;;;;;;9.08;100.00;101464.97;4988969;28;20500;-61
2024/02/20 03:42:44;;;;;;;8.88;1.67;;;;;;;9.10;100.00;101461.91;4990407;28;20058;-60
2024/02/20 03:45:12;;;;;;;5.25;1.42;;;;;;;9.12;100.00;101460.44;4989095;28;20081;-61
2024/02/20 03:47:39;;;;;;;16.48;3.13;;;;;;;9.13;100.00;101462.06;4990097;28;20042;-60
2024/02/20 03:50:07;;;;;;;16.30;3.42;;;;;;;9.14;100.00;101446.31;4988653;28;20046;-60
2024/02/20 03:52:35;;;;;;;6.68;1.90;;;;;;;9.16;100.00;101444.84;4989309;28;20045;-62
2024/02/20 03:55:03;;;;;;;6.00;1.65;;;;;;;9.16;100.00;101442.09;4989664;28;20046;-60
2024/02/20 03:57:30;;;;;;;11.90;2.10;;;;;;;9.16;100.00;101433.00;4988765;28;20061;-60
2024/02/20 04:00:00;;;;;;;6.60;1.67;;;;;;;9.17;100.00;101443.72;4986335;28;20050;-60
2024/02/20 04:02:30;;;;;;;3.90;1.37;;;;;;;9.21;100.00;101423.75;4977814;28;20050;-60
2024/02/20 04:04:58;;;;;;;9.07;1.70;;;;;;;9.21;100.00;101430.09;4989416;28;20463;-60
2024/02/20 04:07:25;;;;;;;7.32;1.50;;;;;;;9.21;100.00;101408.00;4988953;28;20270;-59
2024/02/20 04:09:53;;;;;;;12.20;3.47;;;;;;;9.23;100.00;101415.97;4989474;28;20046;-60
2024/02/20 04:12:21;;;;;;;2.80;1.73;;;;;;;9.22;100.00;101417.09;4989199;28;20068;-60
2024/02/20 04:14:48;;;;;;;8.55;2.60;;;;;;;9.21;100.00;101407.19;4989297;28;20038;-61
2024/02/20 04:17:15;;;;;;;2.92;1.27;;;;;;;9.22;100.00;101403.28;4987841;28;20061;-61
2024/02/20 04:19:43;;;;;;;4.60;1.20;;;;;;;9.22;100.00;101406.03;4988753;28;20060;-61
2024/02/20 04:22:10;;;;;;;6.35;1.98;;;;;;;9.21;100.00;101419.06;4989421;28;20046;-61
2024/02/20 04:24:39;;;;;;;3.63;1.30;;;;;;;9.20;100.00;101400.84;4988502;28;20050;-60
2024/02/20 04:27:06;;;;;;;9.15;1.88;;;;;;;9.21;100.00;101391.44;4989163;28;20038;-60
2024/02/20 04:29:33;;;;;;;2.08;1.83;;;;;;;9.21;100.00;101388.66;4989361;28;20046;-61
2024/02/20 04:32:01;;;;;;;5.65;1.85;;;;;;;9.20;100.00;101375.97;4989080;28;20043;-61
2024/02/20 04:34:28;;;;;;;5.45;1.20;;;;;;;9.22;100.00;101370.13;4988602;28;20665;-60
2024/02/20 04:36:55;;;;;;;4.53;1.25;;;;;;;9.21;100.00;101388.66;4987732;28;20628;-60
2024/02/20 04:39:23;;;;;;;1.73;0.85;;;;;;;9.22;100.00;101375.66;4989024;28;20061;-60
2024/02/20 04:41:50;;;;;;;2.33;1.35;;;;;;;9.23;100.00;101382.81;4989126;28;20416;-61
2024/02/20 04:44:17;;;;;;;1.30;0.70;;;;;;;9.24;100.00;101376.16;4988756;28;20077;-60
2024/02/20 04:46:45;;;;;;;3.67;0.95;;;;;;;9.22;100.00;101373.69;4987939;28;20050;-59
2024/02/20 04:49:12;;;;;;;3.10;1.05;;;;;;;9.23;100.00;101382.81;4988892;28;20061;-61
2024/02/20 04:51:39;;;;;;;3.35;1.00;;;;;;;9.23;100.00;101388.34;4988919;28;20043;-60
2024/02/20 04:54:07;;;;;;;2.28;0.80;;;;;;;9.22;100.00;101370.13;4988969;28;20130;-61
2024/02/20 04:56:35;;;;;;;2.15;0.80;;;;;;;9.22;100.00;101378.41;4988027;28;20066;-60
2024/02/20 04:59:03;;;;;;;2.83;0.85;;;;;;;9.21;100.00;101368.50;4988576;28;20043;-60
2024/02/20 05:01:30;;;;;;;1.95;0.85;;;;;;;9.22;100.00;101357.13;4987287;28;20081;-61
2024/02/20 05:03:58;;;;;;;5.18;0.82;;;;;;;9.22;100.00;101359.06;4988504;28;20057;-60
2024/02/20 05:06:26;;;;;;;2.83;0.60;;;;;;;9.22;100.00;101348.00;4986759;28;20046;-60
2024/02/20 05:08:53;;;;;;;0.77;0.77;;;;;;;9.21;100.00;101333.41;4987306;28;20042;-60
2024/02/20 05:11:23;;;;;;;0.75;0.75;;;;;;;9.23;100.00;101355.19;4985824;28;20082;-60
2024/02/20 05:13:50;;;;;;;0.90;0.63;;;;;;;9.22;100.00;101353.53;4988855;28;20057;-60
2024/02/20 05:16:17;;;;;;;0.68;0.68;;;;;;;9.22;100.00;101348.84;4986595;28;20073;-60
2024/02/20 05:18:45;;;;;;;2.85;0.43;;;;;;;9.22;100.00;101350.78;4987042;28;20054;-60
2024/02/20 05:21:12;;;;;;;1.20;0.65;;;;;;;9.21;100.00;101351.94;4988271;28;20065;-61
2024/02/20 05:23:39;;;;;;;1.27;0.50;;;;;;;9.18;100.00;101331.28;4988625;28;20049;-60
2024/02/20 05:26:07;;;;;;;3.50;0.75;;;;;;;9.16;100.00;101303.97;4987884;28;20050;-60
2024/02/20 05:28:34;;;;;;;2.08;0.50;;;;;;;9.15;100.00;101321.69;4987720;28;20066;-60
2024/02/20 05:31:21;;;;;;;2.17;0.47;;;;;;;9.14;100.00;101341.34;4988047;28;20046;-60
2024/02/20 05:33:48;;;;;;;2.65;0.68;;;;;;;9.13;100.00;101334.22;4987693;28;20046;-60
2024/02/20 05:36:15;;;;;;;2.05;0.98;;;;;;;9.13;100.00;101312.91;4987080;28;20054;-60
2024/02/20 05:38:43;;;;;;;2.25;0.57;;;;;;;9.12;100.00;101319.56;4983147;28;20093;-60
2024/02/20 05:41:10;;;;;;;2.45;0.63;;;;;;;9.11;100.00;101303.31;4987724;28;20057;-61
2024/02/20 05:43:37;;;;;;;1.58;0.40;;;;;;;9.10;100.00;101313.56;4988121;28;20046;-60
2024/02/20 05:46:05;;;;;;;3.13;0.55;;;;;;;9.10;100.00;101305.28;4987238;28;20145;-61
2024/02/20 05:48:32;;;;;;;0.52;0.32;;;;;;;9.10;100.00;101285.94;4987457;28;20244;-60
2024/02/20 05:51:00;;;;;;;3.35;0.50;;;;;;;9.09;100.00;101314.69;4986834;28;20049;-61
2024/02/20 05:53:27;;;;;;;1.65;0.28;;;;;;;9.09;100.00;101306.41;4985707;28;20062;-60
2024/02/20 05:55:54;;;;;;;2.10;0.40;;;;;;;9.09;100.00;101291.78;4987139;28;20456;-60
2024/02/20 05:58:22;;;;;;;2.15;0.45;;;;;;;9.09;100.00;101289.81;4986625;28;20057;-61
2024/02/20 06:00:49;;;;;;;1.23;0.73;;;;;;;9.09;100.00;101300.88;4987786;28;20050;-61
2024/02/20 06:03:17;;;;;;;1.60;0.60;;;;;;;9.11;100.00;101308.81;4987398;28;20054;-60
2024/02/20 06:05:44;;;;;;;3.38;0.63;;;;;;;9.10;100.00;101296.16;4986099;28;20691;-60
2024/02/20 06:08:12;;;;;;;7.57;0.93;;;;;;;9.09;100.00;101300.06;4987770;28;20503;-62
2024/02/20 06:10:39;;;;;;;17.02;2.60;;;;;;;9.07;100.00;101280.25;4976388;28;20385;-61
2024/02/20 06:13:06;;;;;;;2.08;0.40;;;;;;;9.07;100.00;101280.25;4986979;28;20057;-61
2024/02/20 06:15:34;;;;;;;6.68;1.73;;;;;;;9.07;100.00;101280.25;4986970;28;20053;-60
2024/02/20 06:18:01;;;;;;;4.57;0.95;;;;;;;9.06;100.00;101265.59;4985819;28;20057;-61
2024/02/20 06:20:29;;;;;;;2.15;0.80;;;;;;;9.05;100.00;101255.69;4986752;28;20138;-61
2024/02/20 06:22:59;;;;;;;5.97;1.08;;;;;;;9.04;100.00;101265.13;4986774;28;20050;-61
2024/02/20 06:25:28;;;;;;;5.35;0.80;;;;;;;9.04;100.00;101248.56;4987494;28;20428;-60
2024/02/20 06:27:55;;;;;;;6.22;1.00;;;;;;;9.03;100.00;101257.16;4983561;28;20042;-60
2024/02/20 06:30:23;;;;;;;5.00;0.73;;;;;;;9.02;100.00;101255.53;4985585;28;20054;-60
2024/02/20 06:32:52;;;;;;;2.15;0.60;;;;;;;9.02;100.00;101250.84;4985274;28;20073;-60
2024/02/20 06:35:20;;;;;;;4.10;0.50;;;;;;;9.02;100.00;101250.00;4986565;28;20057;-61
2024/02/20 06:37:47;;;;;;;4.35;1.58;;;;;;;9.04;100.00;101256.84;4986839;28;20058;-61
2024/02/20 06:40:15;;;;;;;9.27;0.75;;;;;;;9.06;100.00;101260.09;4984947;28;20047;-61
2024/02/20 06:42:42;;;;;;;5.18;0.95;;;;;;;9.04;100.00;101254.09;4987061;28;20062;-61
2024/02/20 06:45:09;;;;;;;7.68;2.22;;;;;;;9.02;100.00;101242.56;4986396;28;20122;-61
2024/02/20 06:47:40;;;;;;;5.07;1.50;;;;;;;9.01;100.00;101232.63;4987123;28;20073;-60
2024/02/20 06:50:08;;;;;;;5.47;1.08;;;;;;;9.02;100.00;101244.50;4986666;28;20058;-60
2024/02/20 06:52:38;;;;;;;2.97;1.10;;;;;;;9.02;100.00;101236.22;4984878;28;20053;-60
2024/02/20 06:55:08;;;;;;;3.50;0.60;;;;;;;9.00;100.00;101225.47;4985917;28;20038;-62
2024/02/20 06:57:39;;;;;;;7.68;1.00;;;;;;;9.01;100.00;101231.81;4987281;28;20046;-60
2024/02/20 07:00:16;;;;;;;4.30;1.35;;;;;;;9.00;100.00;101228.22;4985887;28;20051;-60
2024/02/20 07:02:44;;;;;;;10.13;1.48;;;;;;;9.00;100.00;101216.41;4986657;28;20065;-61
2024/02/20 07:05:13;;;;;;;5.00;1.17;;;;;;;9.01;100.00;101218.81;4984879;28;20053;-61
2024/02/20 07:07:43;;;;;;;7.47;1.48;;;;;;;9.03;100.00;101207.44;4986060;28;20046;-62
2024/02/20 07:10:10;;;;;;;8.73;1.60;;;;;;;9.03;100.00;101216.53;4986072;28;20042;-61
2024/02/20 07:12:38;;;;;;;5.05;1.13;;;;;;;9.05;100.00;101219.78;4986361;28;20053;-61
2024/02/20 07:15:06;;;;;;;7.40;1.42;;;;;;;9.05;100.00;101214.25;4974254;28;20772;-61
2024/02/20 07:17:34;;;;;;;11.55;2.33;;;;;;;9.05;100.00;101205.97;4986101;28;20050;-61
2024/02/20 07:20:03;;;;;;;10.85;1.92;;;;;;;9.07;100.00;101209.25;4987301;28;20149;-60
2024/02/20 07:22:32;;;;;;;7.28;1.60;;;;;;;9.08;100.00;101205.31;4985576;28;20416;-60
2024/02/20 07:25:00;;;;;;;7.32;2.75;;;;;;;9.11;100.00;101209.38;4986540;28;20042;-60
2024/02/20 07:27:27;;;;;;;8.75;1.73;;;;;;;9.13;100.00;101213.44;4986465;28;20038;-60
2024/02/20 07:29:56;;;;;;;8.48;3.15;;;;;;;9.14;100.00;101198.53;4986401;28;20054;-61
2024/02/20 07:32:23;;;;;;;10.70;2.53;;;;;;;9.16;100.00;101223.03;4984212;28;20066;-60
2024/02/20 07:34:50;;;;;;;19.23;1.30;;;;;;;9.17;100.00;101197.88;4986257;28;20058;-60
2024/02/20 07:37:18;;;;;;;4.93;1.50;;;;;;;9.19;100.00;101209.41;4987519;28;20061;-61
2024/02/20 07:39:46;;;;;;;6.68;1.45;;;;;;;9.21;100.00;101211.03;4984763;28;20050;-61
2024/02/20 07:42:13;;;;;;;12.55;2.20;;;;;;;9.23;100.00;101211.53;4991186;28;20441;-61
2024/02/20 07:44:40;;;;;;;11.98;2.35;;;;;;;9.25;100.00;101203.72;4986346;28;20086;-60
2024/02/20 07:47:09;;;;;;;12.63;2.30;;;;;;;9.27;100.00;101202.25;4986555;28;20141;-61
2024/02/20 07:49:36;;;;;;;11.52;2.00;;;;;;;9.31;100.00;101205.19;4987304;28;20054;-60
2024/02/20 07:52:05;;;;;;;13.80;2.17;;;;;;;9.34;100.00;101202.59;4989588;28;20518;-61
2024/02/20 07:54:32;;;;;;;6.43;1.83;;;;;;;9.37;100.00;101201.91;5000501;28;20542;-60
2024/02/20 07:56:59;;;;;;;8.23;2.40;;;;;;;9.40;100.00;101208.78;4990460;28;20042;-60
2024/02/20 07:59:27;;;;;;;11.57;2.35;;;;;;;9.43;100.00;101206.16;4990035;28;20061;-63
2024/02/20 08:01:54;;;;;;;7.85;2.55;;;;;;;9.46;100.00;101199.97;4990033;28;20049;-63
2024/02/20 08:04:22;;;;;;;8.88;2.10;;;;;;;9.49;100.00;101204.03;4996627;28;20046;-65
2024/02/20 08:06:50;;;;;;;7.15;1.88;;;;;;;9.51;100.00;101196.22;4990344;28;20062;-63
2024/02/20 08:09:17;;;;;;;13.07;1.40;;;;;;;9.52;100.00;101192.31;4989689;28;20054;-63
2024/02/20 08:11:45;;;;;;;8.52;1.80;;;;;;;9.53;100.00;101210.53;4989806;28;20053;-64
2024/02/20 08:14:12;;;;;;;9.45;1.80;;;;;;;9.54;100.00;101207.44;4989550;28;20487;-64
2024/02/20 08:16:39;;;;;;;7.63;1.50;;;;;;;9.55;100.00;101202.72;4989461;28;20046;-63
2024/02/20 08:19:07;;;;;;;11.60;1.83;;;;;;;9.56;100.00;101204.34;4989436;28;20050;-63
2024/02/20 08:21:34;;;;;;;9.73;2.67;;;;;;;9.58;100.00;101186.28;4990081;28;20141;-64
2024/02/20 08:24:03;;;;;;;11.70;2.35;;;;;;;9.61;100.00;101187.59;4990085;28;20053;-64
2024/02/20 08:26:31;;;;;;;14.80;3.13;;;;;;;9.63;100.00;101190.84;4988702;28;20457;-63
2024/02/20 08:28:58;;;;;;;9.07;3.72;;;;;;;9.65;100.00;101180.28;4988144;28;20066;-62
2024/02/20 08:31:27;;;;;;;12.98;2.20;;;;;;;9.67;100.00;101181.56;4986546;28;20046;-63
2024/02/20 08:33:54;;;;;;;11.55;2.10;;;;;;;9.69;100.00;101186.75;4990369;28;20057;-63
2024/02/20 08:36:22;;;;;;;18.33;3.00;;;;;;;9.74;100.00;101190.16;4990458;28;20050;-62
2024/02/20 08:38:49;;;;;;;17.27;3.30;;;;;;;9.77;100.00;101183.97;4987611;28;20050;-63
2024/02/20 08:41:16;;;;;;;8.57;1.73;;;;;;;9.82;100.00;101169.97;4989569;28;20058;-63
2024/02/20 08:43:48;;;;;;;12.05;2.33;;;;;;;9.86;100.00;101164.59;4982976;28;20400;-62
2024/02/20 08:46:15;;;;;;;17.45;4.60;;;;;;;9.89;100.00;101169.47;4989256;28;20440;-63
2024/02/20 08:48:43;;;;;;;8.70;2.25;;;;;;;9.92;100.00;101163.28;4989057;28;20046;-62
2024/02/20 08:51:10;;;;;;;10.05;2.00;;;;;;;9.97;100.00;101167.81;4987646;28;20050;-62
2024/02/20 08:53:37;;;;;;;9.57;2.13;;;;;;;10.00;100.00;101164.41;4988917;28;20081;-62
2024/02/20 08:56:05;;;;;;;12.32;2.47;;;;;;;10.03;100.00;101163.75;4985206;28;20054;-62
2024/02/20 08:58:32;;;;;;;29.08;3.60;;;;;;;10.05;100.00;101153.97;4981118;28;20063;-62
2024/02/20 09:01:00;;;;;;;12.27;2.20;;;;;;;10.07;100.00;101154.44;4989399;28;20050;-63
2024/02/20 09:03:29;;;;;;;13.75;2.67;;;;;;;10.09;100.00;101157.69;4988602;28;20054;-63
2024/02/20 09:05:59;;;;;;;13.02;2.33;;;;;;;10.13;100.00;101150.38;4988247;28;20101;-63
2024/02/20 09:08:32;;;;;;;22.60;3.65;;;;;;;10.16;100.00;101135.88;4988168;28;20046;-63
2024/02/20 09:11:03;;;;;;;13.23;2.85;;;;;;;10.20;100.00;101158.97;4988851;28;20051;-62
2024/02/20 09:13:35;;;;;;;15.63;2.53;;;;;;;10.23;100.00;101140.88;4988921;28;20057;-64
2024/02/20 09:16:04;;;;;;;14.15;3.50;;;;;;;10.25;100.00;101144.13;4987225;28;20064;-62
2024/02/20 09:18:35;;;;;;;12.05;2.55;;;;;;;10.26;100.00;101127.19;4988409;28;20053;-63
2024/02/20 09:21:04;;;;;;;16.75;4.63;;;;;;;10.28;100.00;101127.66;4989094;28;20100;-62
2024/02/20 09:23:36;;;;;;;8.10;2.13;;;;;;;10.29;100.00;101129.31;4988849;28;20076;-63
2024/02/20 09:26:05;;;;;;;;;;;;;;;10.28;100.00;101124.91;4987523;28;20385;-63
2024/02/20 09:28:32;;;;;;;14.98;3.47;;;;;;;10.28;100.00;101122.13;4988409;28;19948;-63
2024/02/20 09:30:59;;;;;;;8.93;2.35;;;;;;;10.31;100.00;101123.44;4988047;28;20094;-63
2024/02/20 09:33:28;;;;;;;14.55;2.42;;;;;;;10.34;100.00;101139.38;4987677;28;20046;-63
2024/02/20 09:35:56;;;;;;;13.77;2.63;;;;;;;10.38;100.00;101130.06;4986939;28;20050;-63
2024/02/20 09:38:23;;;;;;;15.68;2.92;;;;;;;10.45;100.00;101125.94;4995435;28;20287;-63
2024/02/20 09:40:51;;;;;;;14.85;3.25;;;;;;;10.52;100.00;101109.63;4987731;28;20054;-63
2024/02/20 09:43:18;;;;;;;11.07;3.35;;;;;;;10.62;100.00;101121.09;4988397;28;20054;-63
2024/02/20 09:45:49;;;;;;;16.15;3.80;;;;;;;10.71;100.00;101140.44;4976540;28;20057;-60
2024/02/20 09:48:18;;;;;;;19.13;3.70;;;;;;;10.78;100.00;101124.09;4988377;28;20061;-63
2024/02/20 09:50:51;;;;;;;7.67;2.27;;;;;;;10.84;100.00;101106.13;4994319;28;20042;-63
2024/02/20 09:53:20;;;;;;;16.15;3.10;;;;;;;10.90;100.00;101093.69;4988098;28;20061;-63
2024/02/20 09:55:53;;;;;;;16.13;2.83;;;;;;;10.95;100.00;101099.03;4989066;28;20080;-63
2024/02/20 09:58:20;;;;;;;30.83;3.70;;;;;;;11.01;100.00;101079.06;4988274;28;20406;-62
2024/02/20 10:00:48;;;;;;;10.65;3.20;;;;;;;11.05;100.00;101100.56;4987338;28;20061;-62
2024/02/20 10:03:15;;;;;;;11.75;3.05;;;;;;;11.10;100.00;101079.00;4987389;28;20042;-63
2024/02/20 10:05:46;;;;;;;15.27;2.88;;;;;;;11.15;100.00;101084.31;4989239;28;20054;-62
2024/02/20 10:08:14;;;;;;;17.30;3.17;;;;;;;11.19;100.00;101074.19;4988110;28;20047;-65
2024/02/20 10:10:45;;;;;;;22.63;3.97;;;;;;;11.21;100.00;101088.53;4986992;28;20082;-62
2024/02/20 10:13:12;;;;;;;10.07;2.47;;;;;;;11.22;100.00;101076.28;4987261;28;20050;-63
2024/02/20 10:15:40;;;;;;;16.77;2.53;;;;;;;11.22;100.00;101048.56;4988074;28;20408;-63
2024/02/20 10:18:07;;;;;;;16.88;3.03;;;;;;;11.28;100.00;101044.41;4986700;28;20057;-63
2024/02/20 10:20:35;;;;;;;24.25;5.00;;;;;;;11.32;100.00;101042.59;4987059;28;20054;-63
2024/02/20 10:23:08;;;;;;;12.55;2.70;;;;;;;11.35;100.00;101033.59;4984508;28;20401;-63
2024/02/20 10:25:36;;;;;;;11.23;3.22;;;;;;;11.37;100.00;101028.50;4982137;28;20073;-63
2024/02/20 10:28:06;;;;;;;14.57;3.33;;;;;;;11.38;100.00;101027.38;4987548;28;20050;-62
2024/02/20 10:30:34;;;;;;;21.88;4.00;;;;;;;11.37;100.00;101031.28;4984770;28;20069;-63
2024/02/20 10:33:02;;;;;;;12.85;3.17;;;;;;;11.36;100.00;101029.66;4978423;28;20416;-62
2024/02/20 10:35:35;;;;;;;10.70;3.07;;;;;;;11.36;100.00;101023.28;4983590;28;20048;-62
2024/02/20 10:38:04;;;;;;;15.65;2.38;;;;;;;11.33;100.00;101013.69;4988206;28;20050;-62
2024/02/20 10:40:33;;;;;;;14.80;3.22;;;;;;;11.31;100.00;101010.47;4987768;28;20047;-63
2024/02/20 10:43:01;;;;;;;18.38;4.10;;;;;;;11.29;100.00;101034.97;4987580;28;20058;-62
2024/02/20 10:45:28;;;;;;;14.55;2.63;;;;;;;11.28;100.00;101036.09;4988320;28;20507;-63
2024/02/20 10:47:58;;;;;;;12.40;2.38;;;;;;;11.29;100.00;101020.28;4987226;28;20412;-62
2024/02/20 10:50:27;;;;;;;15.95;2.70;;;;;;;11.31;100.00;101038.19;4987395;28;20681;-60
2024/02/20 10:52:59;;;;;;;12.90;3.47;;;;;;;11.35;100.00;101043.88;4986938;28;20116;-60
2024/02/20 10:55:31;;;;;;;9.77;2.47;;;;;;;11.40;100.00;101050.00;4991951;28;20706;-60
2024/02/20 10:58:02;;;;;;;13.27;3.60;;;;;;;11.46;100.00;101062.47;4990533;28;20085;-60
2024/02/20 11:00:34;;;;;;;13.75;2.95;;;;;;;11.53;100.00;101062.75;4972073;28;20400;-60
2024/02/20 11:03:08;;;;;;;15.93;2.72;;;;;;;11.60;100.00;101051.88;4983403;28;20054;-61
2024/02/20 11:05:36;;;;;;;19.75;4.20;;;;;;;11.66;100.00;101046.09;4987534;28;20057;-60
2024/02/20 11:08:08;;;;;;;18.50;3.17;;;;;;;11.71;100.00;101040.34;4978110;28;20046;-61
2024/02/20 11:10:38;;;;;;;11.93;4.63;;;;;;;11.76;100.00;101054.81;4977551;28;20059;-61
2024/02/20 11:13:24;;;;;;;14.43;2.83;;;;;;;11.84;100.00;101050.31;4985578;28;20405;-61
2024/02/20 11:15:53;;;;;;;12.90;2.63;;;;;;;11.90;100.00;101051.69;4981192;28;20053;-61
2024/02/20 11:18:21;;;;;;;16.48;2.63;;;;;;;11.99;100.00;101055.19;4986674;28;20647;-61
2024/02/20 11:21:02;;;;;;;22.88;4.75;;;;;;;12.05;100.00;101024.06;4987565;28;20055;-61
2024/02/20 11:23:31;;;;;;;16.33;3.40;;;;;;;12.07;100.00;101043.16;4987447;28;20054;-61